sensor_id;sensor_type;location;lat;lon;timestamp;P1;durP1;ratioP1;P2;durP2;ratioP2
72895;SDS011;61036;53.224;6.554;2022-07-25T00:01:07;6.20;;;3.17;;
72895;SDS011;61036;53.224;6.554;2022-07-25T00:03:33;4.70;;;3.17;;
72895;SDS011;61036;53.224;6.554;2022-07-25T00:06:00;4.40;;;3.13;;
72895;SDS011;61036;53.224;6.554;2022-07-25T00:08:26;5.50;;;3.50;;
72895;SDS011;61036;53.224;6.554;2022-07-25T00:10:52;4.73;;;3.10;;
72895;SDS011;61036;53.224;6.554;2022-07-25T00:13:18;5.63;;;3.40;;
72895;SDS011;61036;53.224;6.554;2022-07-25T00:15:43;4.93;;;2.90;;
72895;SDS011;61036;53.224;6.554;2022-07-25T00:18:11;4.97;;;3.27;;
72895;SDS011;61036;53.224;6.554;2022-07-25T00:20:37;4.77;;;3.20;;
72895;SDS011;61036;53.224;6.554;2022-07-25T00:23:03;6.10;;;3.07;;
72895;SDS011;61036;53.224;6.554;2022-07-25T00:25:29;5.30;;;2.93;;
72895;SDS011;61036;53.224;6.554;2022-07-25T00:27:55;4.83;;;3.20;;
72895;SDS011;61036;53.224;6.554;2022-07-25T00:30:21;5.67;;;3.20;;
72895;SDS011;61036;53.224;6.554;2022-07-25T00:32:47;5.40;;;3.70;;
72895;SDS011;61036;53.224;6.554;2022-07-25T00:35:12;4.77;;;3.40;;
72895;SDS011;61036;53.224;6.554;2022-07-25T00:37:38;5.43;;;3.70;;
72895;SDS011;61036;53.224;6.554;2022-07-25T00:40:04;4.93;;;3.33;;
72895;SDS011;61036;53.224;6.554;2022-07-25T00:42:31;4.30;;;3.07;;
72895;SDS011;61036;53.224;6.554;2022-07-25T00:44:57;6.73;;;3.60;;
72895;SDS011;61036;53.224;6.554;2022-07-25T00:47:25;4.60;;;3.40;;
72895;SDS011;61036;53.224;6.554;2022-07-25T00:49:51;7.07;;;3.70;;
72895;SDS011;61036;53.224;6.554;2022-07-25T00:52:17;6.63;;;3.90;;
72895;SDS011;61036;53.224;6.554;2022-07-25T00:54:42;6.40;;;4.03;;
72895;SDS011;61036;53.224;6.554;2022-07-25T00:57:08;5.63;;;3.63;;
72895;SDS011;61036;53.224;6.554;2022-07-25T00:59:34;4.87;;;3.40;;
72895;SDS011;61036;53.224;6.554;2022-07-25T01:02:00;5.47;;;3.90;;
72895;SDS011;61036;53.224;6.554;2022-07-25T01:04:25;6.57;;;4.73;;
72895;SDS011;61036;53.224;6.554;2022-07-25T01:06:51;5.23;;;4.10;;
72895;SDS011;61036;53.224;6.554;2022-07-25T01:09:17;5.80;;;4.00;;
72895;SDS011;61036;53.224;6.554;2022-07-25T01:11:44;6.93;;;4.60;;
72895;SDS011;61036;53.224;6.554;2022-07-25T01:14:10;6.50;;;4.40;;
72895;SDS011;61036;53.224;6.554;2022-07-25T01:16:35;5.57;;;4.30;;
72895;SDS011;61036;53.224;6.554;2022-07-25T01:19:01;6.43;;;4.73;;
72895;SDS011;61036;53.224;6.554;2022-07-25T01:21:27;7.50;;;4.67;;
72895;SDS011;61036;53.224;6.554;2022-07-25T01:23:53;7.67;;;4.90;;
72895;SDS011;61036;53.224;6.554;2022-07-25T01:26:19;7.27;;;4.83;;
72895;SDS011;61036;53.224;6.554;2022-07-25T01:28:45;6.23;;;5.13;;
72895;SDS011;61036;53.224;6.554;2022-07-25T01:31:10;5.80;;;4.53;;
72895;SDS011;61036;53.224;6.554;2022-07-25T01:33:36;7.10;;;5.00;;
72895;SDS011;61036;53.224;6.554;2022-07-25T01:36:01;7.20;;;5.37;;
72895;SDS011;61036;53.224;6.554;2022-07-25T01:38:29;7.33;;;5.30;;
72895;SDS011;61036;53.224;6.554;2022-07-25T01:40:56;7.03;;;5.10;;
72895;SDS011;61036;53.224;6.554;2022-07-25T01:43:21;8.27;;;5.87;;
72895;SDS011;61036;53.224;6.554;2022-07-25T01:45:47;8.23;;;5.43;;
72895;SDS011;61036;53.224;6.554;2022-07-25T01:48:13;7.57;;;5.83;;
72895;SDS011;61036;53.224;6.554;2022-07-25T01:50:38;7.70;;;6.20;;
72895;SDS011;61036;53.224;6.554;2022-07-25T01:53:04;7.87;;;6.13;;
72895;SDS011;61036;53.224;6.554;2022-07-25T01:55:33;7.77;;;6.60;;
72895;SDS011;61036;53.224;6.554;2022-07-25T01:57:58;8.37;;;6.60;;
72895;SDS011;61036;53.224;6.554;2022-07-25T02:00:27;8.43;;;6.67;;
72895;SDS011;61036;53.224;6.554;2022-07-25T02:02:52;9.00;;;6.83;;
72895;SDS011;61036;53.224;6.554;2022-07-25T02:05:39;9.37;;;7.43;;
72895;SDS011;61036;53.224;6.554;2022-07-25T02:08:05;9.47;;;6.90;;
72895;SDS011;61036;53.224;6.554;2022-07-25T02:10:32;10.23;;;7.73;;
72895;SDS011;61036;53.224;6.554;2022-07-25T02:12:59;8.53;;;7.13;;
72895;SDS011;61036;53.224;6.554;2022-07-25T02:15:25;8.67;;;6.83;;
72895;SDS011;61036;53.224;6.554;2022-07-25T02:17:51;8.20;;;6.37;;
72895;SDS011;61036;53.224;6.554;2022-07-25T02:20:16;6.97;;;5.93;;
72895;SDS011;61036;53.224;6.554;2022-07-25T02:22:42;6.97;;;5.20;;
72895;SDS011;61036;53.224;6.554;2022-07-25T02:25:08;7.30;;;5.53;;
72895;SDS011;61036;53.224;6.554;2022-07-25T02:27:34;8.03;;;6.30;;
72895;SDS011;61036;53.224;6.554;2022-07-25T02:29:59;7.90;;;6.80;;
72895;SDS011;61036;53.224;6.554;2022-07-25T02:32:25;7.67;;;6.63;;
72895;SDS011;61036;53.224;6.554;2022-07-25T02:34:51;7.90;;;6.30;;
72895;SDS011;61036;53.224;6.554;2022-07-25T02:37:17;8.63;;;6.03;;
72895;SDS011;61036;53.224;6.554;2022-07-25T02:39:42;8.30;;;6.63;;
72895;SDS011;61036;53.224;6.554;2022-07-25T02:42:08;8.83;;;6.93;;
72895;SDS011;61036;53.224;6.554;2022-07-25T02:44:34;7.93;;;5.73;;
72895;SDS011;61036;53.224;6.554;2022-07-25T02:47:00;7.53;;;6.20;;
72895;SDS011;61036;53.224;6.554;2022-07-25T02:49:26;8.30;;;6.20;;
72895;SDS011;61036;53.224;6.554;2022-07-25T02:51:51;7.07;;;5.80;;
72895;SDS011;61036;53.224;6.554;2022-07-25T02:54:16;10.67;;;6.23;;
72895;SDS011;61036;53.224;6.554;2022-07-25T02:56:44;8.00;;;5.70;;
72895;SDS011;61036;53.224;6.554;2022-07-25T02:59:09;7.57;;;6.10;;
72895;SDS011;61036;53.224;6.554;2022-07-25T03:01:35;7.93;;;6.00;;
72895;SDS011;61036;53.224;6.554;2022-07-25T03:04:01;7.83;;;6.40;;
72895;SDS011;61036;53.224;6.554;2022-07-25T03:06:29;8.00;;;6.23;;
72895;SDS011;61036;53.224;6.554;2022-07-25T03:08:54;8.00;;;6.13;;
72895;SDS011;61036;53.224;6.554;2022-07-25T03:11:22;9.00;;;5.90;;
72895;SDS011;61036;53.224;6.554;2022-07-25T03:13:48;8.33;;;6.23;;
72895;SDS011;61036;53.224;6.554;2022-07-25T03:16:13;7.73;;;6.47;;
72895;SDS011;61036;53.224;6.554;2022-07-25T03:18:39;7.67;;;6.07;;
72895;SDS011;61036;53.224;6.554;2022-07-25T03:21:05;8.63;;;6.30;;
72895;SDS011;61036;53.224;6.554;2022-07-25T03:23:31;7.07;;;6.10;;
72895;SDS011;61036;53.224;6.554;2022-07-25T03:25:57;7.33;;;6.00;;
72895;SDS011;61036;53.224;6.554;2022-07-25T03:28:23;7.77;;;6.30;;
72895;SDS011;61036;53.224;6.554;2022-07-25T03:30:49;9.20;;;6.60;;
72895;SDS011;61036;53.224;6.554;2022-07-25T03:33:17;7.53;;;6.20;;
72895;SDS011;61036;53.224;6.554;2022-07-25T03:35:43;8.43;;;5.93;;
72895;SDS011;61036;53.224;6.554;2022-07-25T03:38:09;8.47;;;6.73;;
72895;SDS011;61036;53.224;6.554;2022-07-25T03:40:35;9.27;;;7.70;;
72895;SDS011;61036;53.224;6.554;2022-07-25T03:43:01;10.57;;;7.80;;
72895;SDS011;61036;53.224;6.554;2022-07-25T03:45:27;10.77;;;7.53;;
72895;SDS011;61036;53.224;6.554;2022-07-25T03:47:53;10.07;;;8.23;;
72895;SDS011;61036;53.224;6.554;2022-07-25T03:53:41;10.80;;;8.27;;
72895;SDS011;61036;53.224;6.554;2022-07-25T03:56:34;11.43;;;9.33;;
72895;SDS011;61036;53.224;6.554;2022-07-25T03:59:02;9.70;;;8.30;;
72895;SDS011;61036;53.224;6.554;2022-07-25T04:01:29;11.03;;;8.43;;
72895;SDS011;61036;53.224;6.554;2022-07-25T04:03:55;9.80;;;8.33;;
72895;SDS011;61036;53.224;6.554;2022-07-25T04:06:21;10.37;;;8.77;;
72895;SDS011;61036;53.224;6.554;2022-07-25T04:08:48;11.20;;;8.90;;
72895;SDS011;61036;53.224;6.554;2022-07-25T04:11:14;12.30;;;9.37;;
72895;SDS011;61036;53.224;6.554;2022-07-25T04:13:39;10.20;;;9.03;;
72895;SDS011;61036;53.224;6.554;2022-07-25T04:16:05;11.33;;;8.53;;
72895;SDS011;61036;53.224;6.554;2022-07-25T04:18:31;11.50;;;8.60;;
72895;SDS011;61036;53.224;6.554;2022-07-25T04:20:57;11.23;;;9.47;;
72895;SDS011;61036;53.224;6.554;2022-07-25T04:23:22;10.67;;;9.57;;
72895;SDS011;61036;53.224;6.554;2022-07-25T04:25:48;11.70;;;9.13;;
72895;SDS011;61036;53.224;6.554;2022-07-25T04:28:13;12.60;;;10.27;;
72895;SDS011;61036;53.224;6.554;2022-07-25T04:30:39;10.60;;;9.50;;
72895;SDS011;61036;53.224;6.554;2022-07-25T04:33:04;11.03;;;9.40;;
72895;SDS011;61036;53.224;6.554;2022-07-25T04:35:30;11.60;;;9.87;;
72895;SDS011;61036;53.224;6.554;2022-07-25T04:37:56;10.93;;;9.80;;
72895;SDS011;61036;53.224;6.554;2022-07-25T04:40:22;10.63;;;9.00;;
72895;SDS011;61036;53.224;6.554;2022-07-25T04:42:47;11.40;;;9.03;;
72895;SDS011;61036;53.224;6.554;2022-07-25T04:45:13;10.30;;;9.00;;
72895;SDS011;61036;53.224;6.554;2022-07-25T04:47:39;12.43;;;10.23;;
72895;SDS011;61036;53.224;6.554;2022-07-25T04:50:05;13.73;;;10.40;;
72895;SDS011;61036;53.224;6.554;2022-07-25T04:52:32;11.47;;;9.90;;
72895;SDS011;61036;53.224;6.554;2022-07-25T04:54:57;10.57;;;9.27;;
72895;SDS011;61036;53.224;6.554;2022-07-25T04:57:23;12.23;;;9.57;;
72895;SDS011;61036;53.224;6.554;2022-07-25T04:59:48;10.80;;;9.17;;
72895;SDS011;61036;53.224;6.554;2022-07-25T05:02:14;10.70;;;9.60;;
72895;SDS011;61036;53.224;6.554;2022-07-25T05:04:39;12.30;;;9.60;;
72895;SDS011;61036;53.224;6.554;2022-07-25T05:07:05;11.97;;;10.77;;
72895;SDS011;61036;53.224;6.554;2022-07-25T05:09:31;13.43;;;11.07;;
72895;SDS011;61036;53.224;6.554;2022-07-25T05:11:59;14.00;;;10.93;;
72895;SDS011;61036;53.224;6.554;2022-07-25T05:14:25;11.37;;;10.23;;
72895;SDS011;61036;53.224;6.554;2022-07-25T05:16:51;14.00;;;12.17;;
72895;SDS011;61036;53.224;6.554;2022-07-25T05:19:16;12.30;;;10.90;;
72895;SDS011;61036;53.224;6.554;2022-07-25T05:21:42;14.80;;;11.27;;
72895;SDS011;61036;53.224;6.554;2022-07-25T05:24:07;12.30;;;10.93;;
72895;SDS011;61036;53.224;6.554;2022-07-25T05:26:33;13.23;;;11.60;;
72895;SDS011;61036;53.224;6.554;2022-07-25T05:28:58;12.87;;;11.20;;
72895;SDS011;61036;53.224;6.554;2022-07-25T05:31:24;14.80;;;12.30;;
72895;SDS011;61036;53.224;6.554;2022-07-25T05:33:50;12.80;;;11.50;;
72895;SDS011;61036;53.224;6.554;2022-07-25T05:36:15;12.93;;;11.50;;
72895;SDS011;61036;53.224;6.554;2022-07-25T05:38:42;13.17;;;11.57;;
72895;SDS011;61036;53.224;6.554;2022-07-25T05:41:08;14.17;;;11.90;;
72895;SDS011;61036;53.224;6.554;2022-07-25T05:43:35;14.80;;;11.53;;
72895;SDS011;61036;53.224;6.554;2022-07-25T05:46:01;13.47;;;11.90;;
72895;SDS011;61036;53.224;6.554;2022-07-25T05:48:28;13.27;;;11.27;;
72895;SDS011;61036;53.224;6.554;2022-07-25T05:50:54;14.27;;;12.77;;
72895;SDS011;61036;53.224;6.554;2022-07-25T05:53:21;13.60;;;12.20;;
72895;SDS011;61036;53.224;6.554;2022-07-25T05:55:47;14.27;;;12.77;;
72895;SDS011;61036;53.224;6.554;2022-07-25T05:58:13;14.93;;;13.30;;
72895;SDS011;61036;53.224;6.554;2022-07-25T06:00:41;13.63;;;12.23;;
72895;SDS011;61036;53.224;6.554;2022-07-25T06:03:06;15.10;;;13.53;;
72895;SDS011;61036;53.224;6.554;2022-07-25T06:05:33;15.33;;;13.23;;
72895;SDS011;61036;53.224;6.554;2022-07-25T06:08:01;15.53;;;13.93;;
72895;SDS011;61036;53.224;6.554;2022-07-25T06:10:26;16.07;;;12.77;;
72895;SDS011;61036;53.224;6.554;2022-07-25T06:12:52;16.00;;;14.30;;
72895;SDS011;61036;53.224;6.554;2022-07-25T06:15:17;15.50;;;13.73;;
72895;SDS011;61036;53.224;6.554;2022-07-25T06:17:43;14.87;;;12.70;;
72895;SDS011;61036;53.224;6.554;2022-07-25T06:20:08;15.73;;;13.90;;
72895;SDS011;61036;53.224;6.554;2022-07-25T06:22:37;14.40;;;12.90;;
72895;SDS011;61036;53.224;6.554;2022-07-25T06:25:04;15.23;;;12.70;;
72895;SDS011;61036;53.224;6.554;2022-07-25T06:27:30;15.87;;;13.07;;
72895;SDS011;61036;53.224;6.554;2022-07-25T06:29:56;14.50;;;13.03;;
72895;SDS011;61036;53.224;6.554;2022-07-25T06:32:22;14.73;;;13.13;;
72895;SDS011;61036;53.224;6.554;2022-07-25T06:34:48;14.60;;;13.07;;
72895;SDS011;61036;53.224;6.554;2022-07-25T06:37:13;16.03;;;12.67;;
72895;SDS011;61036;53.224;6.554;2022-07-25T06:39:40;15.70;;;13.07;;
72895;SDS011;61036;53.224;6.554;2022-07-25T06:42:05;16.67;;;12.47;;
72895;SDS011;61036;53.224;6.554;2022-07-25T06:44:35;15.23;;;13.63;;
72895;SDS011;61036;53.224;6.554;2022-07-25T06:47:01;14.27;;;12.77;;
72895;SDS011;61036;53.224;6.554;2022-07-25T06:49:27;14.67;;;13.13;;
72895;SDS011;61036;53.224;6.554;2022-07-25T06:55:28;14.63;;;12.30;;
72895;SDS011;61036;53.224;6.554;2022-07-25T06:57:54;14.47;;;12.93;;
72895;SDS011;61036;53.224;6.554;2022-07-25T07:00:20;16.20;;;13.57;;
72895;SDS011;61036;53.224;6.554;2022-07-25T07:02:52;14.57;;;13.07;;
72895;SDS011;61036;53.224;6.554;2022-07-25T07:05:24;14.83;;;12.10;;
72895;SDS011;61036;53.224;6.554;2022-07-25T07:07:51;13.83;;;12.40;;
72895;SDS011;61036;53.224;6.554;2022-07-25T07:10:18;13.90;;;12.40;;
72895;SDS011;61036;53.224;6.554;2022-07-25T07:12:46;13.77;;;12.00;;
72895;SDS011;61036;53.224;6.554;2022-07-25T07:15:12;14.23;;;12.27;;
72895;SDS011;61036;53.224;6.554;2022-07-25T07:17:37;14.20;;;12.70;;
72895;SDS011;61036;53.224;6.554;2022-07-25T07:20:04;17.40;;;13.43;;
72895;SDS011;61036;53.224;6.554;2022-07-25T07:22:31;14.37;;;12.87;;
72895;SDS011;61036;53.224;6.554;2022-07-25T07:24:57;15.63;;;12.97;;
72895;SDS011;61036;53.224;6.554;2022-07-25T07:27:22;15.80;;;13.07;;
72895;SDS011;61036;53.224;6.554;2022-07-25T07:29:48;15.53;;;13.17;;
72895;SDS011;61036;53.224;6.554;2022-07-25T07:32:15;14.50;;;12.93;;
72895;SDS011;61036;53.224;6.554;2022-07-25T07:34:41;14.27;;;12.13;;
72895;SDS011;61036;53.224;6.554;2022-07-25T07:37:06;15.27;;;12.03;;
72895;SDS011;61036;53.224;6.554;2022-07-25T07:39:32;16.73;;;13.87;;
72895;SDS011;61036;53.224;6.554;2022-07-25T07:41:58;13.20;;;11.77;;
72895;SDS011;61036;53.224;6.554;2022-07-25T07:44:26;15.13;;;12.43;;
72895;SDS011;61036;53.224;6.554;2022-07-25T07:46:52;14.70;;;11.40;;
72895;SDS011;61036;53.224;6.554;2022-07-25T07:49:17;16.40;;;12.57;;
72895;SDS011;61036;53.224;6.554;2022-07-25T07:51:43;13.43;;;12.03;;
72895;SDS011;61036;53.224;6.554;2022-07-25T07:54:09;14.40;;;11.60;;
72895;SDS011;61036;53.224;6.554;2022-07-25T07:56:54;12.13;;;10.20;;
72895;SDS011;61036;53.224;6.554;2022-07-25T07:59:19;12.77;;;11.03;;
72895;SDS011;61036;53.224;6.554;2022-07-25T08:01:45;13.27;;;10.60;;
72895;SDS011;61036;53.224;6.554;2022-07-25T08:04:10;13.03;;;9.83;;
72895;SDS011;61036;53.224;6.554;2022-07-25T08:06:36;11.53;;;9.50;;
72895;SDS011;61036;53.224;6.554;2022-07-25T08:09:02;11.97;;;10.17;;
72895;SDS011;61036;53.224;6.554;2022-07-25T08:11:28;12.80;;;10.00;;
72895;SDS011;61036;53.224;6.554;2022-07-25T08:13:55;11.43;;;9.87;;
72895;SDS011;61036;53.224;6.554;2022-07-25T08:16:21;11.40;;;10.20;;
72895;SDS011;61036;53.224;6.554;2022-07-25T08:18:47;12.67;;;9.83;;
72895;SDS011;61036;53.224;6.554;2022-07-25T08:21:13;12.90;;;9.33;;
72895;SDS011;61036;53.224;6.554;2022-07-25T08:23:38;11.37;;;9.30;;
72895;SDS011;61036;53.224;6.554;2022-07-25T08:26:09;11.10;;;9.73;;
72895;SDS011;61036;53.224;6.554;2022-07-25T08:28:34;9.87;;;8.33;;
72895;SDS011;61036;53.224;6.554;2022-07-25T08:31:00;10.70;;;8.10;;
72895;SDS011;61036;53.224;6.554;2022-07-25T08:33:26;10.93;;;8.67;;
72895;SDS011;61036;53.224;6.554;2022-07-25T08:35:52;11.67;;;9.73;;
72895;SDS011;61036;53.224;6.554;2022-07-25T08:38:20;12.83;;;9.53;;
72895;SDS011;61036;53.224;6.554;2022-07-25T08:40:47;10.70;;;9.17;;
72895;SDS011;61036;53.224;6.554;2022-07-25T08:43:14;11.00;;;9.23;;
72895;SDS011;61036;53.224;6.554;2022-07-25T08:45:43;10.27;;;7.40;;
72895;SDS011;61036;53.224;6.554;2022-07-25T08:48:10;8.57;;;6.93;;
72895;SDS011;61036;53.224;6.554;2022-07-25T08:50:38;8.30;;;6.27;;
72895;SDS011;61036;53.224;6.554;2022-07-25T08:53:04;8.37;;;6.20;;
72895;SDS011;61036;53.224;6.554;2022-07-25T08:55:33;9.67;;;5.97;;
72895;SDS011;61036;53.224;6.554;2022-07-25T08:57:59;11.97;;;6.70;;
72895;SDS011;61036;53.224;6.554;2022-07-25T09:00:25;9.07;;;6.30;;
72895;SDS011;61036;53.224;6.554;2022-07-25T09:02:57;7.90;;;5.43;;
72895;SDS011;61036;53.224;6.554;2022-07-25T09:05:25;7.60;;;5.00;;
72895;SDS011;61036;53.224;6.554;2022-07-25T09:07:53;8.90;;;5.63;;
72895;SDS011;61036;53.224;6.554;2022-07-25T09:10:20;7.50;;;5.20;;
72895;SDS011;61036;53.224;6.554;2022-07-25T09:12:51;7.30;;;4.10;;
72895;SDS011;61036;53.224;6.554;2022-07-25T09:15:26;8.23;;;3.63;;
72895;SDS011;61036;53.224;6.554;2022-07-25T09:17:51;5.00;;;3.23;;
72895;SDS011;61036;53.224;6.554;2022-07-25T09:20:20;8.07;;;3.63;;
72895;SDS011;61036;53.224;6.554;2022-07-25T09:22:46;6.20;;;3.60;;
72895;SDS011;61036;53.224;6.554;2022-07-25T09:25:45;6.30;;;3.80;;
72895;SDS011;61036;53.224;6.554;2022-07-25T09:28:14;7.27;;;3.67;;
72895;SDS011;61036;53.224;6.554;2022-07-25T09:30:54;4.70;;;3.20;;
72895;SDS011;61036;53.224;6.554;2022-07-25T09:33:24;6.30;;;3.20;;
72895;SDS011;61036;53.224;6.554;2022-07-25T09:35:54;6.00;;;3.13;;
72895;SDS011;61036;53.224;6.554;2022-07-25T09:38:21;5.97;;;3.20;;
72895;SDS011;61036;53.224;6.554;2022-07-25T09:40:57;5.20;;;2.77;;
72895;SDS011;61036;53.224;6.554;2022-07-25T09:43:42;6.67;;;3.17;;
72895;SDS011;61036;53.224;6.554;2022-07-25T09:46:09;5.20;;;2.90;;
72895;SDS011;61036;53.224;6.554;2022-07-25T09:48:38;4.20;;;2.80;;
72895;SDS011;61036;53.224;6.554;2022-07-25T09:51:08;4.60;;;3.00;;
72895;SDS011;61036;53.224;6.554;2022-07-25T09:53:34;4.57;;;2.73;;
72895;SDS011;61036;53.224;6.554;2022-07-25T09:55:59;5.37;;;2.90;;
72895;SDS011;61036;53.224;6.554;2022-07-25T09:58:26;6.20;;;3.20;;
72895;SDS011;61036;53.224;6.554;2022-07-25T10:00:55;5.90;;;2.83;;
72895;SDS011;61036;53.224;6.554;2022-07-25T10:08:44;6.10;;;2.63;;
72895;SDS011;61036;53.224;6.554;2022-07-25T10:11:25;4.40;;;2.37;;
72895;SDS011;61036;53.224;6.554;2022-07-25T10:13:53;5.70;;;2.60;;
72895;SDS011;61036;53.224;6.554;2022-07-25T10:16:20;4.93;;;2.60;;
72895;SDS011;61036;53.224;6.554;2022-07-25T10:18:51;6.30;;;2.67;;
72895;SDS011;61036;53.224;6.554;2022-07-25T10:21:19;7.63;;;3.47;;
72895;SDS011;61036;53.224;6.554;2022-07-25T10:23:56;6.10;;;3.10;;
72895;SDS011;61036;53.224;6.554;2022-07-25T10:26:29;9.07;;;3.20;;
72895;SDS011;61036;53.224;6.554;2022-07-25T10:28:56;5.37;;;2.97;;
72895;SDS011;61036;53.224;6.554;2022-07-25T10:34:02;6.80;;;2.93;;
72895;SDS011;61036;53.224;6.554;2022-07-25T10:36:46;4.93;;;3.20;;
72895;SDS011;61036;53.224;6.554;2022-07-25T10:39:16;5.33;;;2.93;;
72895;SDS011;61036;53.224;6.554;2022-07-25T10:41:48;6.93;;;3.57;;
72895;SDS011;61036;53.224;6.554;2022-07-25T10:44:16;7.27;;;3.30;;
72895;SDS011;61036;53.224;6.554;2022-07-25T10:46:42;7.60;;;3.93;;
72895;SDS011;61036;53.224;6.554;2022-07-25T10:49:14;7.03;;;3.70;;
72895;SDS011;61036;53.224;6.554;2022-07-25T10:51:50;7.67;;;3.57;;
72895;SDS011;61036;53.224;6.554;2022-07-25T10:54:23;5.73;;;3.63;;
72895;SDS011;61036;53.224;6.554;2022-07-25T10:56:53;8.50;;;3.40;;
72895;SDS011;61036;53.224;6.554;2022-07-25T10:59:30;7.47;;;3.90;;
72895;SDS011;61036;53.224;6.554;2022-07-25T11:02:00;6.57;;;3.40;;
72895;SDS011;61036;53.224;6.554;2022-07-25T11:04:27;6.40;;;3.33;;
72895;SDS011;61036;53.224;6.554;2022-07-25T11:06:53;7.17;;;3.00;;
72895;SDS011;61036;53.224;6.554;2022-07-25T11:09:23;5.73;;;2.87;;
72895;SDS011;61036;53.224;6.554;2022-07-25T11:11:55;8.87;;;3.30;;
72895;SDS011;61036;53.224;6.554;2022-07-25T11:14:30;6.43;;;2.90;;
72895;SDS011;61036;53.224;6.554;2022-07-25T11:17:08;6.77;;;3.10;;
72895;SDS011;61036;53.224;6.554;2022-07-25T11:19:36;6.47;;;2.73;;
72895;SDS011;61036;53.224;6.554;2022-07-25T11:22:01;7.90;;;2.80;;
72895;SDS011;61036;53.224;6.554;2022-07-25T11:24:37;9.63;;;3.30;;
72895;SDS011;61036;53.224;6.554;2022-07-25T11:27:07;9.57;;;2.83;;
72895;SDS011;61036;53.224;6.554;2022-07-25T11:29:34;8.67;;;2.80;;
72895;SDS011;61036;53.224;6.554;2022-07-25T11:34:32;9.33;;;2.97;;
72895;SDS011;61036;53.224;6.554;2022-07-25T11:37:09;9.07;;;2.90;;
72895;SDS011;61036;53.224;6.554;2022-07-25T11:39:36;7.13;;;2.90;;
72895;SDS011;61036;53.224;6.554;2022-07-25T11:42:13;8.67;;;3.17;;
72895;SDS011;61036;53.224;6.554;2022-07-25T11:44:46;9.07;;;3.57;;
72895;SDS011;61036;53.224;6.554;2022-07-25T11:50:02;10.27;;;3.67;;
72895;SDS011;61036;53.224;6.554;2022-07-25T11:52:35;8.33;;;3.50;;
72895;SDS011;61036;53.224;6.554;2022-07-25T11:55:07;10.20;;;3.30;;
72895;SDS011;61036;53.224;6.554;2022-07-25T11:57:38;10.97;;;3.50;;
72895;SDS011;61036;53.224;6.554;2022-07-25T12:00:09;9.83;;;3.40;;
72895;SDS011;61036;53.224;6.554;2022-07-25T12:02:40;10.40;;;3.37;;
72895;SDS011;61036;53.224;6.554;2022-07-25T12:05:07;7.20;;;2.90;;
72895;SDS011;61036;53.224;6.554;2022-07-25T12:10:51;6.60;;;2.63;;
72895;SDS011;61036;53.224;6.554;2022-07-25T12:12:59;9.67;;;2.80;;
72895;SDS011;61036;53.224;6.554;2022-07-25T12:15:31;8.50;;;2.67;;
72895;SDS011;61036;53.224;6.554;2022-07-25T12:18:00;5.37;;;2.53;;
72895;SDS011;61036;53.224;6.554;2022-07-25T12:20:31;8.13;;;2.60;;
72895;SDS011;61036;53.224;6.554;2022-07-25T12:23:08;7.73;;;2.60;;
72895;SDS011;61036;53.224;6.554;2022-07-25T12:25:38;6.33;;;2.63;;
72895;SDS011;61036;53.224;6.554;2022-07-25T12:28:08;7.43;;;3.10;;
72895;SDS011;61036;53.224;6.554;2022-07-25T12:30:35;6.90;;;3.00;;
72895;SDS011;61036;53.224;6.554;2022-07-25T12:33:01;10.13;;;3.23;;
72895;SDS011;61036;53.224;6.554;2022-07-25T12:35:27;7.97;;;2.87;;
72895;SDS011;61036;53.224;6.554;2022-07-25T12:37:56;6.57;;;2.63;;
72895;SDS011;61036;53.224;6.554;2022-07-25T12:40:22;8.13;;;2.50;;
72895;SDS011;61036;53.224;6.554;2022-07-25T12:42:48;7.60;;;2.47;;
72895;SDS011;61036;53.224;6.554;2022-07-25T12:45:14;8.30;;;2.60;;
72895;SDS011;61036;53.224;6.554;2022-07-25T12:47:45;5.00;;;2.30;;
72895;SDS011;61036;53.224;6.554;2022-07-25T12:50:11;7.10;;;2.30;;
72895;SDS011;61036;53.224;6.554;2022-07-25T12:52:38;8.10;;;2.37;;
72895;SDS011;61036;53.224;6.554;2022-07-25T12:55:05;6.87;;;2.30;;
72895;SDS011;61036;53.224;6.554;2022-07-25T12:57:32;5.73;;;2.57;;
72895;SDS011;61036;53.224;6.554;2022-07-25T12:59:57;9.67;;;2.70;;
72895;SDS011;61036;53.224;6.554;2022-07-25T13:02:25;8.30;;;2.60;;
72895;SDS011;61036;53.224;6.554;2022-07-25T13:04:52;6.20;;;2.17;;
72895;SDS011;61036;53.224;6.554;2022-07-25T13:07:18;7.43;;;2.60;;
72895;SDS011;61036;53.224;6.554;2022-07-25T13:09:43;5.80;;;2.27;;
72895;SDS011;61036;53.224;6.554;2022-07-25T13:12:09;7.43;;;2.73;;
72895;SDS011;61036;53.224;6.554;2022-07-25T13:14:35;7.27;;;2.90;;
72895;SDS011;61036;53.224;6.554;2022-07-25T13:17:00;6.53;;;2.37;;
72895;SDS011;61036;53.224;6.554;2022-07-25T13:19:25;6.10;;;2.57;;
72895;SDS011;61036;53.224;6.554;2022-07-25T13:21:51;7.77;;;2.70;;
72895;SDS011;61036;53.224;6.554;2022-07-25T13:24:19;7.63;;;2.70;;
72895;SDS011;61036;53.224;6.554;2022-07-25T13:26:44;7.23;;;2.40;;
72895;SDS011;61036;53.224;6.554;2022-07-25T13:29:10;8.27;;;2.37;;
72895;SDS011;61036;53.224;6.554;2022-07-25T13:31:36;7.00;;;2.43;;
72895;SDS011;61036;53.224;6.554;2022-07-25T13:34:04;8.13;;;2.73;;
72895;SDS011;61036;53.224;6.554;2022-07-25T13:36:31;5.60;;;2.30;;
72895;SDS011;61036;53.224;6.554;2022-07-25T13:38:57;7.93;;;2.70;;
72895;SDS011;61036;53.224;6.554;2022-07-25T13:41:22;7.17;;;2.50;;
72895;SDS011;61036;53.224;6.554;2022-07-25T13:43:48;7.03;;;2.77;;
72895;SDS011;61036;53.224;6.554;2022-07-25T13:46:16;6.67;;;2.77;;
72895;SDS011;61036;53.224;6.554;2022-07-25T13:48:42;7.83;;;2.90;;
72895;SDS011;61036;53.224;6.554;2022-07-25T13:51:08;6.80;;;2.80;;
72895;SDS011;61036;53.224;6.554;2022-07-25T13:53:34;10.33;;;3.03;;
72895;SDS011;61036;53.224;6.554;2022-07-25T13:56:00;8.03;;;3.17;;
72895;SDS011;61036;53.224;6.554;2022-07-25T13:58:27;7.47;;;3.00;;
72895;SDS011;61036;53.224;6.554;2022-07-25T14:00:53;10.80;;;3.30;;
72895;SDS011;61036;53.224;6.554;2022-07-25T14:03:19;6.93;;;3.00;;
72895;SDS011;61036;53.224;6.554;2022-07-25T14:05:45;9.33;;;3.20;;
72895;SDS011;61036;53.224;6.554;2022-07-25T14:08:11;9.93;;;2.93;;
72895;SDS011;61036;53.224;6.554;2022-07-25T14:10:39;8.73;;;2.90;;
72895;SDS011;61036;53.224;6.554;2022-07-25T14:13:04;8.43;;;3.27;;
72895;SDS011;61036;53.224;6.554;2022-07-25T14:15:30;11.20;;;3.33;;
72895;SDS011;61036;53.224;6.554;2022-07-25T14:17:56;7.27;;;3.00;;
72895;SDS011;61036;53.224;6.554;2022-07-25T14:20:24;7.80;;;3.00;;
72895;SDS011;61036;53.224;6.554;2022-07-25T14:22:49;8.20;;;3.33;;
72895;SDS011;61036;53.224;6.554;2022-07-25T14:25:15;8.07;;;2.80;;
72895;SDS011;61036;53.224;6.554;2022-07-25T14:27:43;8.37;;;3.10;;
72895;SDS011;61036;53.224;6.554;2022-07-25T14:30:09;7.47;;;3.00;;
72895;SDS011;61036;53.224;6.554;2022-07-25T14:32:35;6.63;;;2.87;;
72895;SDS011;61036;53.224;6.554;2022-07-25T14:35:01;8.07;;;2.90;;
72895;SDS011;61036;53.224;6.554;2022-07-25T14:37:28;6.43;;;2.50;;
72895;SDS011;61036;53.224;6.554;2022-07-25T14:39:59;7.67;;;2.77;;
72895;SDS011;61036;53.224;6.554;2022-07-25T14:42:25;9.50;;;3.00;;
72895;SDS011;61036;53.224;6.554;2022-07-25T14:44:52;7.60;;;3.30;;
72895;SDS011;61036;53.224;6.554;2022-07-25T14:47:18;7.40;;;2.90;;
72895;SDS011;61036;53.224;6.554;2022-07-25T14:49:44;7.30;;;3.00;;
72895;SDS011;61036;53.224;6.554;2022-07-25T14:52:09;7.23;;;2.77;;
72895;SDS011;61036;53.224;6.554;2022-07-25T14:54:36;8.03;;;2.80;;
72895;SDS011;61036;53.224;6.554;2022-07-25T14:57:04;8.27;;;2.67;;
72895;SDS011;61036;53.224;6.554;2022-07-25T14:59:30;9.00;;;2.80;;
72895;SDS011;61036;53.224;6.554;2022-07-25T15:01:55;7.50;;;2.70;;
72895;SDS011;61036;53.224;6.554;2022-07-25T15:04:21;10.37;;;3.33;;